Time;durP1;ratioP1;P1;durP2;ratioP2;P2;SDS_P1;SDS_P2;PMS_P1;PMS_P2;Temp;Humidity;BMP_temperature;BMP_pressure;BME280_temperature;BME280_humidity;BME280_pressure;Samples;Min_cycle;Max_cycle;Signal;HPM_P1;HPM_P2
2021/08/09 00:01:12;;;;;;;;;;;15.30;99.90;;;;;;5096677;28;19912;-69
2021/08/09 00:03:38;;;;;;;;;;;15.20;99.90;;;;;;5096319;28;20424;-69
2021/08/09 00:06:03;;;;;;;;;;;15.20;99.90;;;;;;5096266;28;19908;-69
2021/08/09 00:08:28;;;;;;;;;;;15.30;99.90;;;;;;5096261;28;19909;-69
2021/08/09 00:10:54;;;;;;;;;;;15.30;99.90;;;;;;5096160;28;19951;-69
2021/08/09 00:13:19;;;;;;;;;;;15.30;99.90;;;;;;5096209;28;19946;-69
2021/08/09 00:15:45;;;;;;;;;;;15.40;99.90;;;;;;5096079;28;19930;-69
2021/08/09 00:18:10;;;;;;;;;;;15.40;99.90;;;;;;5096033;28;19908;-69
2021/08/09 00:20:36;;;;;;;;;;;15.40;99.90;;;;;;5095960;28;19909;-69
2021/08/09 00:23:01;;;;;;;;;;;15.40;99.90;;;;;;5078379;28;19934;-69
2021/08/09 00:25:27;;;;;;;;;;;15.30;99.90;;;;;;5096173;28;19934;-69
2021/08/09 00:27:52;;;;;;;;;;;15.30;99.90;;;;;;5096132;28;19912;-69
2021/08/09 00:30:18;;;;;;;;;;;15.30;99.90;;;;;;5096039;28;19908;-69
2021/08/09 00:32:43;;;;;;;;;;;15.30;99.90;;;;;;5096022;28;19915;-69
2021/08/09 00:35:09;;;;;;;;;;;15.40;99.90;;;;;;5095912;28;19913;-69
2021/08/09 00:37:34;;;;;;;;;;;15.40;99.90;;;;;;5095908;28;19908;-69
2021/08/09 00:40:00;;;;;;;;;;;15.30;99.90;;;;;;5096135;28;19958;-69
2021/08/09 00:42:25;;;;;;;;;;;15.30;99.90;;;;;;5096098;28;19957;-69
2021/08/09 00:44:51;;;;;;;;;;;15.30;99.90;;;;;;5096065;28;20246;-69
2021/08/09 00:47:16;;;;;;;;;;;15.30;99.90;;;;;;5095989;28;19953;-69
2021/08/09 00:49:41;;;;;;;;;;;15.40;99.90;;;;;;5095709;28;19915;-69
2021/08/09 00:52:07;;;;;;;;;;;15.40;99.90;;;;;;5095921;28;19954;-69
2021/08/09 00:54:34;;;;;;;;;;;15.40;99.90;;;;;;5095478;28;19916;-69
2021/08/09 00:57:00;;;;;;;;;;;15.40;99.90;;;;;;5077521;28;19908;-69
2021/08/09 00:59:27;;;;;;;;;;;15.40;99.90;;;;;;5077148;28;19946;-69
2021/08/09 01:01:52;;;;;;;;;;;15.40;99.90;;;;;;5077068;28;19961;-69
2021/08/09 01:04:17;;;;;;;;;;;15.40;99.90;;;;;;5095137;28;20323;-69
2021/08/09 01:06:43;;;;;;;;;;;15.40;99.90;;;;;;5077052;28;19912;-69
2021/08/09 01:09:14;;;;;;;;;;;15.50;99.90;;;;;;5095603;28;20361;-69
2021/08/09 01:12:01;;;;;;;;;;;15.50;99.90;;;;;;5095570;28;19908;-70
2021/08/09 01:14:46;;;;;;;;;;;15.50;99.90;;;;;;5094625;28;20010;-69
2021/08/09 01:17:13;;;;;;;;;;;15.50;99.90;;;;;;5094867;28;20381;-69
2021/08/09 01:22:22;;;;;;;;;;;15.60;99.90;;;;;;5092230;27;19912;-69
2021/08/09 01:24:51;;;;;;;;;;;15.50;99.90;;;;;;5092010;28;19962;-70
2021/08/09 01:27:26;;;;;;;;;;;15.60;99.90;;;;;;5091367;28;19944;-69
2021/08/09 01:29:53;;;;;;;;;;;15.60;99.90;;;;;;5091345;28;19949;-70
2021/08/09 01:32:19;;;;;;;;;;;15.60;99.90;;;;;;5091304;28;19958;-70
2021/08/09 01:34:45;;;;;;;;;;;15.70;99.90;;;;;;5091234;28;19908;-70
2021/08/09 01:37:11;;;;;;;;;;;15.60;99.90;;;;;;5091192;28;19980;-70
2021/08/09 01:39:38;;;;;;;;;;;15.60;99.90;;;;;;5091150;28;19908;-70
2021/08/09 01:42:03;;;;;;;;;;;15.50;99.90;;;;;;5091626;28;19947;-69
2021/08/09 01:44:29;;;;;;;;;;;15.50;99.90;;;;;;5091641;28;19915;-70
2021/08/09 01:46:55;;;;;;;;;;;15.60;99.90;;;;;;5091632;28;20320;-69
2021/08/09 01:49:21;;;;;;;;;;;15.60;99.90;;;;;;5091550;28;19912;-67
2021/08/09 01:51:47;;;;;;;;;;;15.60;99.90;;;;;;5091513;28;19938;-69
2021/08/09 01:54:12;;;;;;;;;;;15.50;99.90;;;;;;5090936;28;20003;-70
2021/08/09 01:56:39;;;;;;;;;;;15.50;99.90;;;;;;5090867;28;19912;-70
2021/08/09 01:59:05;;;;;;;;;;;15.60;99.90;;;;;;5090825;28;20312;-70
2021/08/09 02:01:30;;;;;;;;;;;15.60;99.90;;;;;;5090998;28;19943;-69
2021/08/09 02:03:56;;;;;;;;;;;15.50;99.90;;;;;;5089437;28;19958;-70
2021/08/09 02:06:21;;;;;;;;;;;15.60;99.90;;;;;;5090669;28;19909;-70
2021/08/09 02:08:47;;;;;;;;;;;15.50;99.90;;;;;;5089312;28;19918;-69
2021/08/09 02:11:14;;;;;;;;;;;15.50;99.90;;;;;;5090866;28;20399;-69
2021/08/09 02:13:57;;;;;;;;;;;15.50;99.90;;;;;;5089303;28;19962;-69
2021/08/09 02:16:34;;;;;;;;;;;15.40;99.90;;;;;;5090530;28;19915;-70
2021/08/09 02:19:01;;;;;;;;;;;15.40;99.90;;;;;;5090455;28;19909;-70
2021/08/09 02:21:31;;;;;;;;;;;15.30;99.90;;;;;;5104040;28;20014;-70
2021/08/09 02:23:59;;;;;;;;;;;15.30;99.90;;;;;;5092829;28;20333;-70
2021/08/09 02:26:34;;;;;;;;;;;15.30;99.90;;;;;;5111205;28;19916;-70
2021/08/09 02:29:04;;;;;;;;;;;15.20;99.90;;;;;;5111147;28;19912;-70
2021/08/09 02:31:30;;;;;;;;;;;15.20;99.90;;;;;;5109657;28;20340;-70
2021/08/09 02:33:56;;;;;;;;;;;15.20;99.90;;;;;;5079021;28;19908;-69
2021/08/09 02:36:22;;;;;;;;;;;15.10;99.90;;;;;;5078644;28;20049;-69
2021/08/09 02:38:48;;;;;;;;;;;15.00;99.90;;;;;;5097113;28;20060;-69
2021/08/09 02:41:13;;;;;;;;;;;15.00;99.90;;;;;;5096992;28;19942;-69
2021/08/09 02:43:39;;;;;;;;;;;15.10;99.90;;;;;;5096749;28;20396;-69
2021/08/09 02:46:04;;;;;;;;;;;15.00;99.90;;;;;;5096665;28;20002;-69
2021/08/09 02:48:31;;;;;;;;;;;15.00;99.90;;;;;;5096638;28;19930;-71
2021/08/09 02:50:57;;;;;;;;;;;14.90;99.90;;;;;;5096594;28;19915;-70
2021/08/09 02:53:24;;;;;;;;;;;14.80;99.90;;;;;;5096553;28;19908;-69
2021/08/09 02:55:51;;;;;;;;;;;14.80;99.90;;;;;;5096473;28;20389;-68
2021/08/09 02:58:17;;;;;;;;;;;14.80;99.90;;;;;;5096724;28;20452;-68
2021/08/09 03:00:43;;;;;;;;;;;14.80;99.90;;;;;;5096614;28;19912;-68
2021/08/09 03:03:09;;;;;;;;;;;14.80;99.90;;;;;;5096892;28;20405;-68
2021/08/09 03:05:35;;;;;;;;;;;14.80;99.90;;;;;;5078405;28;19915;-68
2021/08/09 03:08:01;;;;;;;;;;;14.80;99.90;;;;;;5096270;28;19909;-68
2021/08/09 03:10:26;;;;;;;;;;;14.90;99.90;;;;;;5078461;28;20311;-68
2021/08/09 03:12:56;;;;;;;;;;;14.90;99.90;;;;;;5096429;28;19908;-68
2021/08/09 03:15:21;;;;;;;;;;;14.80;99.90;;;;;;5096408;28;19908;-68
2021/08/09 03:17:47;;;;;;;;;;;14.90;99.90;;;;;;5096079;28;19916;-68
2021/08/09 03:20:12;;;;;;;;;;;14.90;99.90;;;;;;5078250;28;19920;-68
2021/08/09 03:22:38;;;;;;;;;;;14.90;99.90;;;;;;5096249;28;19919;-68
2021/08/09 03:25:03;;;;;;;;;;;14.90;99.90;;;;;;5096393;28;19915;-68
2021/08/09 03:27:29;;;;;;;;;;;14.90;99.90;;;;;;5077706;28;20445;-68
2021/08/09 03:29:54;;;;;;;;;;;14.90;99.90;;;;;;5095814;28;19908;-68
2021/08/09 03:32:20;;;;;;;;;;;14.90;99.90;;;;;;5096067;28;19908;-68
2021/08/09 03:34:45;;;;;;;;;;;15.00;99.90;;;;;;5095741;28;20380;-68
2021/08/09 03:37:11;;;;;;;;;;;14.90;99.90;;;;;;5095973;28;20434;-68
2021/08/09 03:39:36;;;;;;;;;;;14.90;99.90;;;;;;5095998;28;19998;-68
2021/08/09 03:42:02;;;;;;;;;;;14.90;99.90;;;;;;5095842;28;19912;-68
2021/08/09 03:44:27;;;;;;;;;;;14.90;99.90;;;;;;5094912;28;19912;-68
2021/08/09 03:46:53;;;;;;;;;;;14.90;99.90;;;;;;5095787;28;19908;-68
2021/08/09 03:49:18;;;;;;;;;;;15.00;99.90;;;;;;5095751;28;20041;-68
2021/08/09 03:51:43;;;;;;;;;;;14.90;99.90;;;;;;5095726;28;19961;-68
2021/08/09 03:54:09;;;;;;;;;;;15.00;99.90;;;;;;5077235;28;19915;-68
2021/08/09 03:56:35;;;;;;;;;;;14.90;99.90;;;;;;5060510;28;19908;-68
2021/08/09 03:59:00;;;;;;;;;;;14.90;99.90;;;;;;5095574;28;19915;-68
2021/08/09 04:01:26;;;;;;;;;;;14.90;99.90;;;;;;5095456;28;19912;-68
2021/08/09 04:03:52;;;;;;;;;;;14.90;99.90;;;;;;5095440;28;19908;-68
2021/08/09 04:06:18;;;;;;;;;;;14.90;99.90;;;;;;5077329;28;19912;-68
2021/08/09 04:08:44;;;;;;;;;;;14.90;99.90;;;;;;5095414;28;19954;-68
2021/08/09 04:11:09;;;;;;;;;;;14.90;99.90;;;;;;5095316;28;19908;-68
2021/08/09 04:13:35;;;;;;;;;;;14.90;99.90;;;;;;5094974;28;20011;-68
2021/08/09 04:16:00;;;;;;;;;;;15.00;99.90;;;;;;5094923;28;19915;-68
2021/08/09 04:18:26;;;;;;;;;;;14.90;99.90;;;;;;5094903;28;19977;-68
2021/08/09 04:20:51;;;;;;;;;;;14.90;99.90;;;;;;5094743;28;19920;-68
2021/08/09 04:23:17;;;;;;;;;;;14.90;99.90;;;;;;5095013;28;19908;-68
2021/08/09 04:25:42;;;;;;;;;;;15.00;99.90;;;;;;5094728;28;19989;-68
2021/08/09 04:28:08;;;;;;;;;;;14.90;99.90;;;;;;5095031;28;19919;-68
2021/08/09 04:30:33;;;;;;;;;;;15.00;99.90;;;;;;5076498;28;19951;-68
2021/08/09 04:33:01;;;;;;;;;;;14.90;99.90;;;;;;5094666;28;19944;-68
2021/08/09 04:35:26;;;;;;;;;;;14.90;99.90;;;;;;5094884;28;19908;-68
2021/08/09 04:37:52;;;;;;;;;;;14.90;99.90;;;;;;5094818;28;19908;-68
2021/08/09 04:40:17;;;;;;;;;;;14.90;99.90;;;;;;5094526;28;20369;-68
2021/08/09 04:42:44;;;;;;;;;;;14.90;99.90;;;;;;5094766;28;20019;-68
2021/08/09 04:45:10;;;;;;;;;;;15.00;99.90;;;;;;5094484;28;19908;-68
2021/08/09 04:47:35;;;;;;;;;;;15.00;99.90;;;;;;5094379;28;20015;-68
2021/08/09 04:50:00;;;;;;;;;;;15.00;99.90;;;;;;5094363;28;19959;-70
2021/08/09 04:52:26;;;;;;;;;;;15.00;99.90;;;;;;5094345;28;19908;-70
2021/08/09 04:54:51;;;;;;;;;;;14.90;99.90;;;;;;5094032;28;20382;-70
2021/08/09 04:57:17;;;;;;;;;;;14.90;99.90;;;;;;5094274;28;19908;-70
2021/08/09 04:59:42;;;;;;;;;;;15.00;99.90;;;;;;5076094;28;19956;-70
2021/08/09 05:02:08;;;;;;;;;;;15.10;99.90;;;;;;5094124;28;20010;-70
2021/08/09 05:04:33;;;;;;;;;;;15.10;99.90;;;;;;5076136;28;20384;-70
2021/08/09 05:07:01;;;;;;;;;;;15.20;99.90;;;;;;5094102;28;20007;-70
2021/08/09 05:09:26;;;;;;;;;;;15.20;99.90;;;;;;5075974;28;20002;-70
2021/08/09 05:11:52;;;;;;;;;;;15.10;99.90;;;;;;5094052;28;19988;-70
2021/08/09 05:14:17;;;;;;;;;;;15.20;99.90;;;;;;5094016;28;19995;-70
2021/08/09 05:16:43;;;;;;;;;;;15.20;99.90;;;;;;5093963;28;19958;-70
2021/08/09 05:19:10;;;;;;;;;;;15.20;99.90;;;;;;5075877;28;19919;-70
2021/08/09 05:21:36;;;;;;;;;;;15.20;99.90;;;;;;5075616;28;20345;-70
2021/08/09 05:24:02;;;;;;;;;;;15.30;99.90;;;;;;5094236;28;19908;-70
2021/08/09 05:26:28;;;;;;;;;;;15.30;99.90;;;;;;5093978;28;19909;-70
2021/08/09 05:28:54;;;;;;;;;;;15.40;99.90;;;;;;5093929;28;20276;-70
2021/08/09 05:31:20;;;;;;;;;;;15.40;99.90;;;;;;5093923;28;19908;-70
2021/08/09 05:33:45;;;;;;;;;;;15.40;99.90;;;;;;5093895;28;19908;-70
2021/08/09 05:36:11;;;;;;;;;;;15.50;99.90;;;;;;5075707;28;19908;-70
2021/08/09 05:38:36;;;;;;;;;;;15.60;99.90;;;;;;5093844;28;19912;-70
2021/08/09 05:41:02;;;;;;;;;;;15.70;99.90;;;;;;5093751;28;20298;-70
2021/08/09 05:43:28;;;;;;;;;;;15.80;99.90;;;;;;5093782;28;20016;-70
2021/08/09 05:45:53;;;;;;;;;;;16.00;99.90;;;;;;5093742;28;19908;-70
2021/08/09 05:48:19;;;;;;;;;;;16.10;99.90;;;;;;5093754;28;19915;-70
2021/08/09 05:50:44;;;;;;;;;;;16.40;99.90;;;;;;5093993;28;20381;-70
2021/08/09 05:53:10;;;;;;;;;;;16.50;99.90;;;;;;5075892;28;19915;-70
2021/08/09 05:55:35;;;;;;;;;;;16.60;99.90;;;;;;5075924;28;19908;-70
2021/08/09 05:58:01;;;;;;;;;;;16.70;99.90;;;;;;5094120;28;19909;-70
2021/08/09 06:00:26;;;;;;;;;;;16.70;99.90;;;;;;5094142;28;19919;-70
2021/08/09 06:02:52;;;;;;;;;;;16.80;99.90;;;;;;5094162;28;19915;-70
2021/08/09 06:05:17;;;;;;;;;;;16.90;99.90;;;;;;5075683;28;19915;-70
2021/08/09 06:07:43;;;;;;;;;;;16.90;99.90;;;;;;5095284;28;19908;-70
2021/08/09 06:10:09;;;;;;;;;;;17.10;99.90;;;;;;5097422;28;20388;-70
2021/08/09 06:12:36;;;;;;;;;;;17.20;99.90;;;;;;5079347;28;19915;-70
2021/08/09 06:15:02;;;;;;;;;;;17.50;99.90;;;;;;5097605;28;20277;-70
2021/08/09 06:17:28;;;;;;;;;;;17.30;99.90;;;;;;5097094;28;20353;-70
2021/08/09 06:19:53;;;;;;;;;;;17.20;99.90;;;;;;5079238;28;19919;-70
2021/08/09 06:22:18;;;;;;;;;;;17.00;99.90;;;;;;5096996;28;19912;-70
2021/08/09 06:24:44;;;;;;;;;;;17.00;99.90;;;;;;5096952;28;19945;-70
2021/08/09 06:27:09;;;;;;;;;;;17.00;99.90;;;;;;5096970;28;19922;-70
2021/08/09 06:29:35;;;;;;;;;;;17.10;99.90;;;;;;5096926;28;20010;-70
2021/08/09 06:32:00;;;;;;;;;;;17.30;99.90;;;;;;5096863;28;19953;-70
2021/08/09 06:34:26;;;;;;;;;;;17.50;99.90;;;;;;5096800;28;19912;-70
2021/08/09 06:36:51;;;;;;;;;;;17.80;99.90;;;;;;5078648;28;20387;-70
2021/08/09 06:39:19;;;;;;;;;;;18.20;99.90;;;;;;5078808;28;19908;-70
2021/08/09 06:41:45;;;;;;;;;;;18.40;99.90;;;;;;5096631;28;20019;-70
2021/08/09 06:44:11;;;;;;;;;;;18.50;99.90;;;;;;5096583;28;20369;-70
2021/08/09 06:46:36;;;;;;;;;;;18.70;99.90;;;;;;5096664;28;19950;-70
2021/08/09 06:49:03;;;;;;;;;;;18.40;99.90;;;;;;5078856;28;19941;-71
2021/08/09 06:51:29;;;;;;;;;;;18.40;99.90;;;;;;5098504;28;19946;-70
2021/08/09 06:53:55;;;;;;;;;;;18.20;99.90;;;;;;5096785;28;19912;-70
2021/08/09 06:56:20;;;;;;;;;;;18.10;99.90;;;;;;5096416;28;19915;-70
2021/08/09 06:58:45;;;;;;;;;;;18.00;99.90;;;;;;5096461;28;19913;-70
2021/08/09 07:01:11;;;;;;;;;;;18.10;99.90;;;;;;5096277;28;20304;-70
2021/08/09 07:03:36;;;;;;;;;;;18.00;99.90;;;;;;5095955;28;19908;-70
2021/08/09 07:06:02;;;;;;;;;;;17.90;99.90;;;;;;5096200;28;20007;-71
2021/08/09 07:08:27;;;;;;;;;;;17.80;99.90;;;;;;5096522;28;20002;-70
2021/08/09 07:10:53;;;;;;;;;;;17.80;99.90;;;;;;5096304;28;20438;-70
2021/08/09 07:13:19;;;;;;;;;;;17.80;99.90;;;;;;5096319;28;20331;-71
2021/08/09 07:15:44;;;;;;;;;;;17.70;99.90;;;;;;5096366;28;20300;-71
2021/08/09 07:18:10;;;;;;;;;;;17.80;99.90;;;;;;5095771;28;20258;-70
2021/08/09 07:20:35;;;;;;;;;;;17.70;99.90;;;;;;5074466;28;19920;-70
2021/08/09 07:23:01;;;;;;;;;;;17.60;99.90;;;;;;5075690;28;19908;-70
2021/08/09 07:25:26;;;;;;;;;;;17.60;99.90;;;;;;5075738;28;19934;-70
2021/08/09 07:27:52;;;;;;;;;;;17.50;99.90;;;;;;5075497;28;19909;-70
2021/08/09 07:30:18;;;;;;;;;;;17.40;99.90;;;;;;5074157;28;20385;-70
2021/08/09 07:32:44;;;;;;;;;;;17.40;99.90;;;;;;5066314;28;19909;-70
2021/08/09 07:35:09;;;;;;;;;;;17.40;99.90;;;;;;5060169;28;20003;-70
2021/08/09 07:37:35;;;;;;;;;;;17.50;99.90;;;;;;5055728;28;19999;-70
2021/08/09 07:40:00;;;;;;;;;;;17.50;99.90;;;;;;5054205;28;19951;-70
2021/08/09 07:42:26;;;;;;;;;;;17.50;99.90;;;;;;5054035;28;19958;-70
2021/08/09 07:44:52;;;;;;;;;;;17.50;99.90;;;;;;5064127;28;19913;-71
2021/08/09 07:47:18;;;;;;;;;;;17.50;99.90;;;;;;5075153;28;19999;-71
2021/08/09 07:49:44;;;;;;;;;;;17.50;99.90;;;;;;5075149;28;19947;-70
2021/08/09 07:52:09;;;;;;;;;;;17.40;99.90;;;;;;5075043;28;19909;-70
2021/08/09 07:54:35;;;;;;;;;;;17.50;99.90;;;;;;5107649;28;19912;-70
2021/08/09 07:57:03;;;;;;;;;;;17.60;99.90;;;;;;5074580;28;20398;-70
2021/08/09 07:59:29;;;;;;;;;;;17.60;99.90;;;;;;5075209;28;20418;-70
2021/08/09 08:01:55;;;;;;;;;;;17.60;99.90;;;;;;5073421;28;19912;-70
2021/08/09 08:04:20;;;;;;;;;;;17.60;99.90;;;;;;5073961;28;19908;-70
2021/08/09 08:06:46;;;;;;;;;;;17.70;99.90;;;;;;5068802;28;19952;-70
2021/08/09 08:09:11;;;;;;;;;;;17.80;99.90;;;;;;5054926;28;19916;-70
2021/08/09 08:11:37;;;;;;;;;;;17.70;99.90;;;;;;5054976;28;19908;-70
2021/08/09 08:14:03;;;;;;;;;;;17.70;99.90;;;;;;5053445;28;19909;-70
2021/08/09 08:16:28;;;;;;;;;;;17.70;99.90;;;;;;5053448;28;19913;-70
2021/08/09 08:18:54;;;;;;;;;;;17.90;99.90;;;;;;5055294;28;20385;-70
2021/08/09 08:21:19;;;;;;;;;;;17.90;99.90;;;;;;5053130;28;19927;-70
2021/08/09 08:23:45;;;;;;;;;;;18.10;99.90;;;;;;5054526;28;19963;-70
2021/08/09 08:26:10;;;;;;;;;;;18.40;99.90;;;;;;5054711;28;19909;-70
2021/08/09 08:28:36;;;;;;;;;;;19.10;99.90;;;;;;5054323;28;20381;-71
2021/08/09 08:31:02;;;;;;;;;;;20.00;99.90;;;;;;5053809;28;19909;-70
2021/08/09 08:33:28;;;;;;;;;;;20.40;99.90;;;;;;5054300;28;19999;-70
2021/08/09 08:35:53;;;;;;;;;;;21.20;99.90;;;;;;5054263;28;19967;-71
2021/08/09 08:38:19;;;;;;;;;;;21.60;99.90;;;;;;5054266;28;19920;-71
2021/08/09 08:40:46;;;;;;;;;;;22.00;99.90;;;;;;5054117;28;19913;-71
2021/08/09 08:43:20;;;;;;;;;;;22.10;99.90;;;;;;5054142;28;19909;-71
2021/08/09 08:45:47;;;;;;;;;;;22.90;99.90;;;;;;5054099;28;19912;-71
2021/08/09 08:48:12;;;;;;;;;;;23.20;99.90;;;;;;5054349;28;19965;-71
2021/08/09 08:50:38;;;;;;;;;;;23.40;99.90;;;;;;5054210;28;19917;-71
2021/08/09 08:53:06;;;;;;;;;;;22.80;99.90;;;;;;5054709;28;19931;-70
2021/08/09 08:55:31;;;;;;;;;;;21.60;99.90;;;;;;5054274;28;19909;-71
2021/08/09 08:57:57;;;;;;;;;;;22.30;99.90;;;;;;5054081;28;19913;-71
2021/08/09 09:00:22;;;;;;;;;;;22.80;99.90;;;;;;5057674;28;19915;-71
2021/08/09 09:02:48;;;;;;;;;;;23.10;99.90;;;;;;5074155;28;19917;-71
2021/08/09 09:05:15;;;;;;;;;;;22.80;99.90;;;;;;5053564;28;19916;-71
2021/08/09 09:07:43;;;;;;;;;;;22.30;99.90;;;;;;5054078;28;19909;-70
2021/08/09 09:10:12;;;;;;;;;;;21.80;99.90;;;;;;5054043;28;19913;-71
2021/08/09 09:12:38;;;;;;;;;;;22.30;99.90;;;;;;5053999;28;20380;-71
2021/08/09 09:15:04;;;;;;;;;;;22.50;99.90;;;;;;5066202;28;19939;-70
2021/08/09 09:17:32;;;;;;;;;;;22.10;99.90;;;;;;5073758;28;19974;-71
2021/08/09 09:19:57;;;;;;;;;;;21.70;99.90;;;;;;5074826;28;20301;-71
2021/08/09 09:22:23;;;;;;;;;;;21.60;99.90;;;;;;5094061;28;19912;-70
2021/08/09 09:24:51;;;;;;;;;;;21.40;99.90;;;;;;5094113;28;19919;-70
2021/08/09 09:27:32;;;;;;;;;;;21.40;99.90;;;;;;5094081;28;19977;-70
2021/08/09 09:29:58;;;;;;;;;;;21.80;99.90;;;;;;5094036;28;19912;-71
2021/08/09 09:32:24;;;;;;;;;;;23.00;99.90;;;;;;5059130;28;19908;-71
2021/08/09 09:34:50;;;;;;;;;;;23.50;99.90;;;;;;5094147;28;19915;-71
2021/08/09 09:37:22;;;;;;;;;;;24.10;99.90;;;;;;5085967;28;19948;-71
2021/08/09 09:39:47;;;;;;;;;;;23.90;99.90;;;;;;5078444;28;19955;-71
2021/08/09 09:42:14;;;;;;;;;;;24.80;99.90;;;;;;5089742;28;19916;-71
2021/08/09 09:44:41;;;;;;;;;;;24.90;99.90;;;;;;5059848;28;19944;-71
2021/08/09 09:47:22;;;;;;;;;;;25.10;99.90;;;;;;5077493;28;19944;-71
2021/08/09 09:49:49;;;;;;;;;;;25.50;99.90;;;;;;5077575;28;19909;-70
2021/08/09 09:52:34;;;;;;;;;;;25.70;99.90;;;;;;5059051;28;19908;-71
2021/08/09 09:55:04;;;;;;;;;;;25.00;99.90;;;;;;5077154;28;19954;-71
2021/08/09 09:57:30;;;;;;;;;;;25.00;99.90;;;;;;5077219;28;19909;-71
2021/08/09 09:59:58;;;;;;;;;;;24.70;99.90;;;;;;5077197;28;19995;-71
2021/08/09 10:02:23;;;;;;;;;;;24.40;99.90;;;;;;5077440;28;19920;-71
2021/08/09 10:04:50;;;;;;;;;;;24.70;99.90;;;;;;5077371;28;19912;-71
2021/08/09 10:07:16;;;;;;;;;;;24.50;99.90;;;;;;5077332;28;20325;-71
2021/08/09 10:09:44;;;;;;;;;;;24.60;99.90;;;;;;5077253;28;19909;-71
2021/08/09 10:12:10;;;;;;;;;;;25.50;99.90;;;;;;5077227;28;19912;-70
2021/08/09 10:14:36;;;;;;;;;;;25.40;99.90;;;;;;5076906;28;19923;-71
2021/08/09 10:17:03;;;;;;;;;;;25.40;99.90;;;;;;5076836;28;19909;-71
2021/08/09 10:19:29;;;;;;;;;;;24.60;99.90;;;;;;5076881;28;19913;-71
2021/08/09 10:21:54;;;;;;;;;;;24.80;99.90;;;;;;5076557;28;19928;-71
2021/08/09 10:24:35;;;;;;;;;;;24.50;99.90;;;;;;5076732;28;19915;-71
2021/08/09 10:27:01;;;;;;;;;;;23.90;99.90;;;;;;5076751;28;19954;-71
2021/08/09 10:29:26;;;;;;;;;;;24.30;99.90;;;;;;5076938;28;19908;-71
2021/08/09 10:31:52;;;;;;;;;;;24.80;99.90;;;;;;5076606;28;19909;-71
2021/08/09 10:34:36;;;;;;;;;;;24.70;99.90;;;;;;5076995;28;19951;-71
2021/08/09 10:37:19;;;;;;;;;;;24.40;99.90;;;;;;5076516;28;20366;-70
2021/08/09 10:42:25;;;;;;;;;;;23.10;99.90;;;;;;5091643;27;19912;-70
2021/08/09 10:44:51;;;;;;;;;;;22.70;99.90;;;;;;5078926;28;19919;-71
2021/08/09 10:47:36;;;;;;;;;;;22.20;99.90;;;;;;5080830;28;19987;-70
2021/08/09 10:50:02;;;;;;;;;;;21.90;99.90;;;;;;5080057;28;19923;-70
2021/08/09 10:52:35;;;;;;;;;;;21.80;99.90;;;;;;5080208;28;19909;-70
2021/08/09 10:55:20;;;;;;;;;;;22.00;99.90;;;;;;5077099;28;20373;-70
2021/08/09 10:57:46;;;;;;;;;;;21.70;99.90;;;;;;5079389;28;19959;-70
2021/08/09 11:00:11;;;;;;;;;;;21.70;99.90;;;;;;5077733;28;19956;-70
2021/08/09 11:02:37;;;;;;;;;;;21.80;99.90;;;;;;5086299;28;19909;-70
2021/08/09 11:05:20;;;;;;;;;;;21.70;99.90;;;;;;5090961;28;19934;-70
2021/08/09 11:07:47;;;;;;;;;;;21.60;99.90;;;;;;5082286;28;20284;-70
2021/08/09 11:10:12;;;;;;;;;;;21.50;99.90;;;;;;5070606;28;19923;-70
2021/08/09 11:12:57;;;;;;;;;;;21.60;99.90;;;;;;5070574;28;19912;-70
2021/08/09 11:15:23;;;;;;;;;;;21.40;99.90;;;;;;5071046;28;19916;-70
2021/08/09 11:17:49;;;;;;;;;;;21.30;99.90;;;;;;5069773;28;19908;-70
2021/08/09 11:20:20;;;;;;;;;;;21.30;99.90;;;;;;5103315;28;19917;-70
2021/08/09 11:22:48;;;;;;;;;;;21.20;99.90;;;;;;5070955;28;20334;-70
2021/08/09 11:25:34;;;;;;;;;;;21.30;99.90;;;;;;5070629;28;19908;-70
2021/08/09 11:28:01;;;;;;;;;;;21.50;99.90;;;;;;5070441;28;19909;-70
2021/08/09 11:30:35;;;;;;;;;;;21.50;99.90;;;;;;5070251;28;20003;-70
2021/08/09 11:33:00;;;;;;;;;;;21.70;99.90;;;;;;5068970;28;20305;-70
2021/08/09 11:35:26;;;;;;;;;;;22.40;99.90;;;;;;5070183;28;19916;-70
2021/08/09 11:37:53;;;;;;;;;;;22.80;99.90;;;;;;5070066;28;20007;-70
2021/08/09 11:40:39;;;;;;;;;;;22.60;99.90;;;;;;5073131;28;19920;-70
2021/08/09 11:43:04;;;;;;;;;;;22.40;99.90;;;;;;5071932;28;20352;-70
2021/08/09 11:45:30;;;;;;;;;;;22.40;99.90;;;;;;5106197;28;20003;-70
2021/08/09 11:47:56;;;;;;;;;;;22.70;99.90;;;;;;5097744;28;19908;-70
2021/08/09 11:50:23;;;;;;;;;;;22.90;99.90;;;;;;5092594;28;19919;-70
2021/08/09 11:52:48;;;;;;;;;;;22.80;99.90;;;;;;5098462;28;19909;-70
2021/08/09 11:55:21;;;;;;;;;;;23.00;99.90;;;;;;5069324;28;19981;-70
2021/08/09 11:57:47;;;;;;;;;;;23.00;99.90;;;;;;5062930;28;19919;-70
2021/08/09 12:00:13;;;;;;;;;;;23.10;99.90;;;;;;5056918;28;19991;-69
2021/08/09 12:02:58;;;;;;;;;;;23.00;99.90;;;;;;5066494;28;20011;-69
2021/08/09 12:05:24;;;;;;;;;;;22.80;99.90;;;;;;5076370;28;19958;-70
2021/08/09 12:07:56;;;;;;;;;;;22.90;99.90;;;;;;5059228;28;19950;-69
2021/08/09 12:10:23;;;;;;;;;;;23.20;99.90;;;;;;5076523;28;19962;-69
2021/08/09 12:12:49;;;;;;;;;;;23.20;99.90;;;;;;5076550;28;20326;-69
2021/08/09 12:15:16;;;;;;;;;;;23.20;99.90;;;;;;5076188;28;20006;-69
2021/08/09 12:17:41;;;;;;;;;;;23.00;99.90;;;;;;5044512;28;20259;-69
2021/08/09 12:20:14;;;;;;;;;;;22.80;99.90;;;;;;5038421;28;19916;-69
2021/08/09 12:22:40;;;;;;;;;;;22.40;99.90;;;;;;5056290;28;20290;-69
2021/08/09 12:25:10;;;;;;;;;;;21.80;99.90;;;;;;5056003;28;19915;-69
2021/08/09 12:27:36;;;;;;;;;;;21.70;99.90;;;;;;5056467;28;20380;-69
2021/08/09 12:30:06;;;;;;;;;;;21.50;99.90;;;;;;5038358;28;19943;-69
2021/08/09 12:32:33;;;;;;;;;;;21.50;99.90;;;;;;5056114;28;19948;-69
2021/08/09 12:34:59;;;;;;;;;;;21.80;99.90;;;;;;5055804;28;19913;-69
2021/08/09 12:37:25;;;;;;;;;;;21.70;99.90;;;;;;5069334;28;19966;-69
2021/08/09 12:39:50;;;;;;;;;;;21.50;99.90;;;;;;5075771;28;19915;-69
2021/08/09 12:42:19;;;;;;;;;;;21.30;99.90;;;;;;5065579;28;20007;-69
2021/08/09 12:44:45;;;;;;;;;;;21.30;99.90;;;;;;5055675;28;19908;-69
2021/08/09 12:47:11;;;;;;;;;;;21.50;99.90;;;;;;5056045;28;20346;-70
2021/08/09 12:49:36;;;;;;;;;;;22.10;99.90;;;;;;5056000;28;19915;-69
2021/08/09 12:52:02;;;;;;;;;;;22.80;99.90;;;;;;5056006;28;20358;-69
2021/08/09 12:54:29;;;;;;;;;;;22.70;99.90;;;;;;5065419;28;20338;-69
2021/08/09 12:56:55;;;;;;;;;;;22.70;99.90;;;;;;5057347;28;19974;-70
2021/08/09 12:59:20;;;;;;;;;;;22.70;99.90;;;;;;5075340;28;20273;-69
2021/08/09 13:01:46;;;;;;;;;;;22.60;99.90;;;;;;5075210;28;20007;-70
2021/08/09 13:04:11;;;;;;;;;;;22.50;99.90;;;;;;5074581;28;19912;-70
2021/08/09 13:06:36;;;;;;;;;;;22.50;99.90;;;;;;5075212;28;19931;-69
2021/08/09 13:09:02;;;;;;;;;;;22.50;99.90;;;;;;5075203;28;20344;-70
2021/08/09 13:11:28;;;;;;;;;;;22.50;99.90;;;;;;5075079;28;19908;-69
2021/08/09 13:13:53;;;;;;;;;;;22.20;99.90;;;;;;5075044;28;20327;-69
2021/08/09 13:16:19;;;;;;;;;;;22.10;99.90;;;;;;5076015;28;19908;-69
2021/08/09 13:18:45;;;;;;;;;;;21.80;99.90;;;;;;5075596;28;19970;-69
2021/08/09 13:21:11;;;;;;;;;;;21.80;99.90;;;;;;5075369;28;19916;-69
2021/08/09 13:23:36;;;;;;;;;;;21.70;99.90;;;;;;5055050;28;19909;-69
2021/08/09 13:26:02;;;;;;;;;;;21.70;99.90;;;;;;5059907;28;19913;-70
2021/08/09 13:28:31;;;;;;;;;;;22.00;99.90;;;;;;5054677;28;20285;-70
2021/08/09 13:30:56;;;;;;;;;;;22.50;99.90;;;;;;5073129;28;19947;-70
2021/08/09 13:33:22;;;;;;;;;;;23.10;99.90;;;;;;5055482;28;19955;-70
2021/08/09 13:35:47;;;;;;;;;;;23.30;99.90;;;;;;5054439;28;19909;-70
2021/08/09 13:38:13;;;;;;;;;;;23.10;99.90;;;;;;5054477;28;19909;-70
2021/08/09 13:40:38;;;;;;;;;;;22.60;99.90;;;;;;5054098;28;20373;-70
2021/08/09 13:43:04;;;;;;;;;;;22.50;99.90;;;;;;5056883;28;19916;-70
2021/08/09 13:45:30;;;;;;;;;;;22.40;99.90;;;;;;5074312;28;19908;-70
2021/08/09 13:47:57;;;;;;;;;;;22.30;99.90;;;;;;5074288;28;20277;-70
2021/08/09 13:50:22;;;;;;;;;;;22.20;99.90;;;;;;5074215;28;19953;-70
2021/08/09 13:52:48;;;;;;;;;;;22.10;99.90;;;;;;5074337;28;20474;-70
2021/08/09 13:55:13;;;;;;;;;;;22.10;99.90;;;;;;5074408;28;19962;-70
2021/08/09 13:57:39;;;;;;;;;;;22.00;99.90;;;;;;5074060;28;19913;-70
2021/08/09 14:00:06;;;;;;;;;;;21.90;99.90;;;;;;5051774;28;19912;-70
2021/08/09 14:02:31;;;;;;;;;;;21.80;99.90;;;;;;5069292;28;19947;-70
2021/08/09 14:04:57;;;;;;;;;;;22.00;99.90;;;;;;5053946;28;19909;-69
2021/08/09 14:07:23;;;;;;;;;;;22.60;99.90;;;;;;5053958;28;20004;-70
2021/08/09 14:09:48;;;;;;;;;;;22.70;99.90;;;;;;5056598;28;20377;-70
2021/08/09 14:12:14;;;;;;;;;;;22.60;99.90;;;;;;5073876;28;19909;-70
2021/08/09 14:14:39;;;;;;;;;;;22.40;99.90;;;;;;5073734;28;19999;-70
2021/08/09 14:17:04;;;;;;;;;;;22.20;99.90;;;;;;5073605;28;19912;-70
2021/08/09 14:19:30;;;;;;;;;;;22.00;99.90;;;;;;5073829;28;19908;-69